createdAt,value
2023-01-23T00:00:17.990Z,22.90
2023-01-23T00:03:42.255Z,27.37
2023-01-23T00:07:07.209Z,23.50
2023-01-23T00:10:31.307Z,24.70
2023-01-23T00:13:55.385Z,25.50
2023-01-23T00:17:19.295Z,26.47
2023-01-23T00:20:43.829Z,20.00
2023-01-23T00:24:13.350Z,23.30
2023-01-23T00:27:37.121Z,27.80
2023-01-23T00:31:07.659Z,22.90
2023-01-23T00:34:32.273Z,21.73
2023-01-23T00:37:58.990Z,24.33
2023-01-23T00:41:24.928Z,25.30
2023-01-23T00:44:50.342Z,26.03
2023-01-23T00:48:14.382Z,29.17
2023-01-23T00:51:38.310Z,25.77
2023-01-23T00:55:02.980Z,23.07
2023-01-23T00:58:28.913Z,27.63
2023-01-23T01:01:53.600Z,26.10
2023-01-23T01:05:20.555Z,20.27
2023-01-23T01:08:47.049Z,28.10
2023-01-23T01:12:11.347Z,26.07
2023-01-23T01:15:37.344Z,26.93
2023-01-23T01:19:03.649Z,24.83
2023-01-23T01:22:27.327Z,18.73
2023-01-23T01:25:51.315Z,19.53
2023-01-23T01:29:15.598Z,25.43
2023-01-23T01:32:43.204Z,18.70
2023-01-23T01:36:09.859Z,26.63
2023-01-23T01:39:34.349Z,20.63
2023-01-23T01:43:04.417Z,21.90
2023-01-23T01:46:29.763Z,21.53
2023-01-23T01:50:00.717Z,26.43
2023-01-23T01:53:29.946Z,19.30
2023-01-23T01:56:59.704Z,28.60
2023-01-23T02:00:23.404Z,24.57
2023-01-23T02:03:48.582Z,22.57
2023-01-23T02:07:20.332Z,17.10
2023-01-23T02:10:45.088Z,27.43
2023-01-23T02:14:10.303Z,20.33
2023-01-23T02:17:35.609Z,21.70
2023-01-23T02:21:02.405Z,23.53
2023-01-23T02:24:37.047Z,20.77
2023-01-23T02:28:02.757Z,23.23
2023-01-23T02:31:32.192Z,18.73
2023-01-23T02:35:00.361Z,14.47
2023-01-23T02:38:28.274Z,20.90
2023-01-23T02:41:54.682Z,23.50
2023-01-23T02:45:27.421Z,23.40
2023-01-23T02:48:51.450Z,20.77
2023-01-23T02:52:15.790Z,25.87
2023-01-23T02:55:42.298Z,17.10
2023-01-23T02:59:25.643Z,20.60
2023-01-23T03:02:51.888Z,22.17
2023-01-23T03:06:16.470Z,20.00
2023-01-23T03:09:41.866Z,19.77
2023-01-23T03:13:07.370Z,18.53
2023-01-23T03:16:31.590Z,17.03
2023-01-23T03:19:57.690Z,22.00
2023-01-23T03:23:22.470Z,16.70
2023-01-23T03:26:48.881Z,19.77
2023-01-23T03:30:18.068Z,17.20
2023-01-23T03:33:43.341Z,17.57
2023-01-23T03:37:11.447Z,16.30
2023-01-23T03:40:53.814Z,21.93
2023-01-23T03:44:24.557Z,18.20
2023-01-23T03:47:49.490Z,18.17
2023-01-23T03:51:13.532Z,19.03
2023-01-23T03:54:39.862Z,14.23
2023-01-23T03:58:05.903Z,19.97
2023-01-23T04:01:32.029Z,22.73
2023-01-23T04:04:57.939Z,20.00
2023-01-23T04:08:22.648Z,18.07
2023-01-23T04:11:50.446Z,23.37
2023-01-23T04:15:20.180Z,23.23
2023-01-23T04:18:44.514Z,19.10
2023-01-23T04:22:09.894Z,18.73
2023-01-23T04:25:40.532Z,22.50
2023-01-23T04:29:11.355Z,18.07
2023-01-23T04:32:35.563Z,19.90
2023-01-23T04:36:02.272Z,14.27
2023-01-23T04:39:28.579Z,18.53
2023-01-23T04:42:52.747Z,19.17
2023-01-23T04:46:45.268Z,16.00
2023-01-23T04:50:12.400Z,21.40
2023-01-23T04:53:38.917Z,14.63
2023-01-23T04:57:04.725Z,17.37
2023-01-23T05:00:30.091Z,23.23
2023-01-23T05:04:11.899Z,19.47
2023-01-23T05:07:36.565Z,19.37
2023-01-23T05:11:08.197Z,19.83
2023-01-23T05:14:32.565Z,17.50
2023-01-23T05:17:56.764Z,16.23
2023-01-23T05:21:21.950Z,20.60
2023-01-23T05:24:46.790Z,18.77
2023-01-23T05:28:11.768Z,18.80
2023-01-23T05:31:40.687Z,15.77
2023-01-23T05:35:25.005Z,16.60
2023-01-23T05:38:56.119Z,15.87
2023-01-23T05:42:24.644Z,22.27
2023-01-23T05:46:28.036Z,19.60
2023-01-23T05:49:55.911Z,17.33
2023-01-23T05:53:23.717Z,20.47
2023-01-23T05:56:49.041Z,18.70
2023-01-23T06:00:31.614Z,20.23
2023-01-23T06:04:19.111Z,18.87
2023-01-23T06:07:58.907Z,16.47
2023-01-23T06:11:22.712Z,22.13
2023-01-23T06:14:49.745Z,16.40
2023-01-23T06:18:13.747Z,17.80
2023-01-23T06:21:38.067Z,19.40
2023-01-23T06:25:03.183Z,16.77
2023-01-23T06:28:27.953Z,20.40
2023-01-23T06:31:54.187Z,13.00
2023-01-23T06:35:18.677Z,17.73
2023-01-23T06:38:45.096Z,11.60
2023-01-23T06:42:13.561Z,14.90
2023-01-23T06:45:47.332Z,19.17
2023-01-23T06:49:17.267Z,14.87
2023-01-23T06:52:41.705Z,19.13
2023-01-23T06:56:08.216Z,17.73
2023-01-23T06:59:34.492Z,14.30
2023-01-23T07:03:03.649Z,13.27
2023-01-23T07:06:30.897Z,19.93
2023-01-23T07:09:54.739Z,20.27
2023-01-23T07:13:21.755Z,20.33
2023-01-23T07:16:50.844Z,22.27
2023-01-23T07:20:18.007Z,16.07
2023-01-23T07:23:48.332Z,14.47
2023-01-23T07:27:12.761Z,20.20
2023-01-23T07:30:37.015Z,19.23
2023-01-23T07:34:02.588Z,20.93
2023-01-23T07:37:26.836Z,16.80
2023-01-23T07:40:52.670Z,17.57
2023-01-23T07:44:19.426Z,17.43
2023-01-23T07:47:45.637Z,20.57
2023-01-23T07:51:12.113Z,20.30
2023-01-23T07:54:36.762Z,22.17
2023-01-23T07:58:02.096Z,21.57
2023-01-23T08:01:25.844Z,21.43
2023-01-23T08:04:49.546Z,23.30
2023-01-23T08:08:14.155Z,21.47
2023-01-23T08:11:38.919Z,27.90
2023-01-23T08:15:03.801Z,16.87
2023-01-23T08:18:27.746Z,19.50
2023-01-23T08:21:51.345Z,21.07
2023-01-23T08:25:15.186Z,21.70
2023-01-23T08:28:41.899Z,20.53
2023-01-23T08:32:07.014Z,20.67
2023-01-23T08:35:30.704Z,18.90
2023-01-23T08:38:54.336Z,17.50
2023-01-23T08:42:17.954Z,16.20
2023-01-23T08:45:42.723Z,22.77
2023-01-23T08:49:08.827Z,19.20
2023-01-23T08:52:35.226Z,17.77
2023-01-23T08:56:02.140Z,16.20
2023-01-23T08:59:26.097Z,20.40
2023-01-23T09:02:50.129Z,17.03
2023-01-23T09:06:17.421Z,13.67
2023-01-23T09:09:41.117Z,14.10
2023-01-23T09:13:05.069Z,14.93
2023-01-23T09:16:29.173Z,16.47
2023-01-23T09:19:53.679Z,16.90
2023-01-23T09:23:18.737Z,19.13
2023-01-23T09:26:43.489Z,19.97
2023-01-23T09:30:08.637Z,16.40
2023-01-23T09:33:32.172Z,20.30
2023-01-23T09:36:55.782Z,19.80
2023-01-23T09:40:23.964Z,22.47
2023-01-23T09:43:54.554Z,18.77
2023-01-23T09:47:22.546Z,19.10
2023-01-23T09:50:56.968Z,19.20
2023-01-23T09:54:38.042Z,22.27
2023-01-23T09:58:04.936Z,21.70
2023-01-23T10:01:31.271Z,15.57
2023-01-23T10:04:56.234Z,19.63
2023-01-23T10:08:27.680Z,15.73
2023-01-23T10:12:00.782Z,17.83
2023-01-23T10:15:37.346Z,18.37
2023-01-23T10:19:16.441Z,17.80
2023-01-23T10:22:47.254Z,17.27
2023-01-23T10:26:17.019Z,16.03
2023-01-23T10:29:44.816Z,19.30
2023-01-23T10:33:16.192Z,17.37
2023-01-23T10:36:54.821Z,18.40
2023-01-23T10:40:42.035Z,15.10
2023-01-23T10:44:14.589Z,15.43
2023-01-23T10:47:47.905Z,17.77
2023-01-23T10:51:29.007Z,15.70
2023-01-23T10:54:52.613Z,16.37
2023-01-23T10:58:29.661Z,15.80
2023-01-23T11:01:59.740Z,16.90
2023-01-23T11:05:50.625Z,17.20
2023-01-23T11:09:21.718Z,18.50
2023-01-23T11:12:49.469Z,14.20
2023-01-23T11:16:15.935Z,13.63
2023-01-23T11:19:39.642Z,17.70
2023-01-23T11:23:05.912Z,14.10
2023-01-23T11:26:35.402Z,17.23
2023-01-23T11:30:47.057Z,15.63
2023-01-23T11:34:14.821Z,15.10
2023-01-23T11:37:41.992Z,13.97
2023-01-23T11:41:06.343Z,14.80
2023-01-23T11:44:44.974Z,17.07
2023-01-23T11:48:23.950Z,17.83
2023-01-23T11:51:57.972Z,17.13
2023-01-23T11:56:00.237Z,17.23
2023-01-23T11:59:43.713Z,17.60
2023-01-23T12:03:35.730Z,17.90
2023-01-23T12:07:17.181Z,15.13
2023-01-23T12:10:50.535Z,15.10
2023-01-23T12:14:21.606Z,13.03
2023-01-23T12:17:54.709Z,15.50
2023-01-23T12:21:20.710Z,14.93
2023-01-23T12:25:01.435Z,18.40
2023-01-23T12:28:40.277Z,14.20
2023-01-23T12:32:22.827Z,13.70
2023-01-23T12:35:55.265Z,17.07
2023-01-23T12:39:36.904Z,18.23
2023-01-23T12:43:06.829Z,15.70
2023-01-23T12:46:36.874Z,15.50
2023-01-23T12:50:06.706Z,17.53
2023-01-23T12:53:37.689Z,22.20
2023-01-23T12:57:03.157Z,19.13
2023-01-23T13:00:48.853Z,13.00
2023-01-23T13:04:26.566Z,19.57
2023-01-23T13:07:55.357Z,14.70
2023-01-23T13:11:44.820Z,17.27
2023-01-23T13:15:40.485Z,21.07
2023-01-23T13:19:41.335Z,16.57
2023-01-23T13:23:32.320Z,19.67
2023-01-23T13:26:57.229Z,21.93
2023-01-23T13:30:41.285Z,19.23
2023-01-23T13:34:33.857Z,19.73
2023-01-23T13:38:00.008Z,19.33
2023-01-23T13:41:41.310Z,23.80
2023-01-23T13:45:32.443Z,21.13
2023-01-23T14:23:42.765Z,26.30
2023-01-23T14:27:11.617Z,27.63
2023-01-23T14:30:36.864Z,26.20
2023-01-23T14:34:10.735Z,25.73
2023-01-23T14:37:38.092Z,26.70
2023-01-23T14:41:06.975Z,32.77
2023-01-23T14:44:36.938Z,27.23
2023-01-23T14:48:06.083Z,28.13
2023-01-23T14:51:32.199Z,21.43
2023-01-23T14:54:57.613Z,30.87
2023-01-23T14:58:24.336Z,33.50
2023-01-23T15:01:55.029Z,31.43
2023-01-23T15:05:23.470Z,34.50
2023-01-23T15:08:49.415Z,24.63
2023-01-23T15:12:17.871Z,35.50
2023-01-23T15:15:47.935Z,25.80
2023-01-23T15:19:21.562Z,31.90
2023-01-23T15:22:45.184Z,29.30
2023-01-23T15:26:24.543Z,28.20
2023-01-23T15:29:48.084Z,33.40
2023-01-23T15:33:26.653Z,24.80
2023-01-23T15:36:52.407Z,32.97
2023-01-23T15:40:18.069Z,26.90
2023-01-23T15:43:43.013Z,23.00
2023-01-23T15:47:06.816Z,26.63
2023-01-23T15:50:30.599Z,28.80
2023-01-23T15:53:55.312Z,25.67
2023-01-23T15:57:18.999Z,28.43
2023-01-23T16:00:44.555Z,31.47
2023-01-23T16:04:08.159Z,27.43
2023-01-23T16:07:35.040Z,33.17
2023-01-23T16:10:58.761Z,42.57
2023-01-23T16:14:22.383Z,30.43
2023-01-23T16:17:47.995Z,28.00
2023-01-23T16:21:15.741Z,30.27
2023-01-23T16:24:42.272Z,29.50
2023-01-23T16:28:06.283Z,30.80
2023-01-23T16:31:30.135Z,27.63
2023-01-23T16:34:55.166Z,29.33
2023-01-23T16:38:22.386Z,25.27
2023-01-23T16:41:46.653Z,26.07
2023-01-23T16:45:15.635Z,29.60
2023-01-23T16:48:39.242Z,23.83
2023-01-23T16:52:05.429Z,30.67
2023-01-23T16:55:32.570Z,32.03
2023-01-23T16:58:56.208Z,17.07
2023-01-23T17:02:24.640Z,30.07
2023-01-23T17:05:50.110Z,26.80
2023-01-23T17:09:16.273Z,28.33
2023-01-23T17:12:40.325Z,31.03
2023-01-23T17:16:10.698Z,28.00
2023-01-23T17:19:43.795Z,27.27
2023-01-23T17:23:07.307Z,28.10
2023-01-23T17:26:32.289Z,26.70
2023-01-23T17:29:56.005Z,26.03
2023-01-23T17:33:21.846Z,26.77
2023-01-23T17:36:45.531Z,24.37
2023-01-23T17:40:13.926Z,29.30
2023-01-23T17:43:40.618Z,26.27
2023-01-23T17:47:04.264Z,27.70
2023-01-23T17:50:28.319Z,27.37
2023-01-23T17:53:52.492Z,26.40
2023-01-23T17:57:16.066Z,31.60
2023-01-23T18:00:41.785Z,31.30
2023-01-23T18:04:18.993Z,28.77
2023-01-23T18:07:52.994Z,24.00
2023-01-23T18:11:19.812Z,34.20
2023-01-23T18:14:49.273Z,25.43
2023-01-23T18:18:24.514Z,24.13
2023-01-23T18:21:50.053Z,24.67
2023-01-23T18:25:15.815Z,24.80
2023-01-23T18:28:51.522Z,24.10
2023-01-23T18:32:32.009Z,27.67
2023-01-23T18:36:12.943Z,29.57
2023-01-23T18:40:05.969Z,28.73
2023-01-23T18:43:38.425Z,28.60
2023-01-23T18:47:05.630Z,28.73
2023-01-23T18:50:29.853Z,32.03
2023-01-23T18:53:59.626Z,33.60
2023-01-23T18:57:43.185Z,24.20
2023-01-23T19:01:16.446Z,28.63
2023-01-23T19:04:47.486Z,25.07
2023-01-23T19:08:27.868Z,24.60
2023-01-23T19:12:03.981Z,25.07
2023-01-23T19:15:32.286Z,23.77
2023-01-23T19:19:15.420Z,35.40
2023-01-23T19:22:49.416Z,27.20
2023-01-23T19:26:15.305Z,25.90
2023-01-23T19:29:41.046Z,23.73
2023-01-23T19:33:04.894Z,29.23
2023-01-23T19:36:30.298Z,27.30
2023-01-23T19:39:53.943Z,24.10
2023-01-23T19:43:18.776Z,19.17
2023-01-23T19:46:44.146Z,23.20
2023-01-23T19:50:09.063Z,24.23
2023-01-23T19:53:32.558Z,22.90
2023-01-23T19:56:57.415Z,25.10
2023-01-23T20:00:21.521Z,24.50
2023-01-23T20:08:17.925Z,26.13
2023-01-23T20:11:41.583Z,21.90
2023-01-23T20:15:05.960Z,23.80
2023-01-23T20:18:29.503Z,21.33
2023-01-23T20:21:54.454Z,25.60
2023-01-23T20:25:18.563Z,23.30
2023-01-23T20:28:42.532Z,26.03
2023-01-23T20:32:06.569Z,24.33
2023-01-23T20:35:30.452Z,20.83
2023-01-23T20:38:57.145Z,24.70
2023-01-23T20:42:20.764Z,22.47
2023-01-23T20:45:48.227Z,19.77
2023-01-23T20:49:14.620Z,24.03
2023-01-23T20:52:55.587Z,24.13
2023-01-23T20:56:27.230Z,24.27
2023-01-23T20:59:51.052Z,18.97
2023-01-23T21:03:14.602Z,28.33
2023-01-23T21:06:38.187Z,28.33
2023-01-23T21:10:01.732Z,24.23
2023-01-23T21:13:26.715Z,24.00
2023-01-23T21:16:50.374Z,25.80
2023-01-23T21:20:14.337Z,26.27
2023-01-23T21:23:37.971Z,23.30
2023-01-23T21:27:01.785Z,22.67
2023-01-23T21:30:26.771Z,25.43
2023-01-23T21:33:50.866Z,29.23
2023-01-23T21:37:14.387Z,24.57
2023-01-23T21:40:38.052Z,23.47
2023-01-23T21:44:01.593Z,22.40
2023-01-23T21:47:26.558Z,26.97
2023-01-23T21:50:50.167Z,26.23
2023-01-23T21:54:13.728Z,24.53
2023-01-23T21:57:37.309Z,16.87
2023-01-23T22:01:20.061Z,24.13
2023-01-23T22:04:44.996Z,23.70
2023-01-23T22:08:08.598Z,22.10
2023-01-23T22:11:32.326Z,30.10
2023-01-23T22:14:55.879Z,25.67
2023-01-23T22:18:19.583Z,21.67
2023-01-23T22:21:46.346Z,21.53
2023-01-23T22:25:10.775Z,25.60
2023-01-23T22:28:35.159Z,27.50
2023-01-23T22:31:58.911Z,21.63
2023-01-23T22:35:22.955Z,20.40
2023-01-23T22:38:51.783Z,24.33
2023-01-23T22:42:15.348Z,20.27
2023-01-23T22:45:38.958Z,24.63
2023-01-23T22:49:02.533Z,23.77
2023-01-23T22:52:26.174Z,18.60
2023-01-23T22:55:51.063Z,19.67
2023-01-23T22:59:14.841Z,20.10
2023-01-23T23:02:38.808Z,24.10
2023-01-23T23:06:04.808Z,16.20
2023-01-23T23:09:28.462Z,18.17
2023-01-23T23:12:53.415Z,15.03
2023-01-23T23:16:19.087Z,16.57
2023-01-23T23:19:42.650Z,14.97
2023-01-23T23:23:06.288Z,12.80
2023-01-23T23:26:31.592Z,15.03
2023-01-23T23:29:56.573Z,15.43
2023-01-23T23:33:20.945Z,15.77
2023-01-23T23:36:44.871Z,15.70
2023-01-23T23:40:14.115Z,13.73
2023-01-23T23:43:38.969Z,13.70
2023-01-23T23:47:04.181Z,15.20
2023-01-23T23:50:27.880Z,16.10
2023-01-23T23:53:51.422Z,14.37
2023-01-23T23:57:15.891Z,18.43
